Time;durP1;ratioP1;P1;durP2;ratioP2;P2;SDS_P1;SDS_P2;PMS_P1;PMS_P2;Temp;Humidity;BMP_temperature;BMP_pressure;BME280_temperature;BME280_humidity;BME280_pressure;Samples;Min_cycle;Max_cycle;Signal;HPM_P1;HPM_P2
2021/12/13 00:01:56;;;;;;;159.90;28.92;;;10.40;99.90;;;;;;5113492;27;20574;-72
2021/12/13 00:04:38;;;;;;;186.32;27.63;;;10.30;99.90;;;;;;5113057;28;20067;-74
2021/12/13 00:07:21;;;;;;;140.13;27.10;;;10.40;99.90;;;;;;5094586;28;20047;-72
2021/12/13 00:09:49;;;;;;;155.30;26.92;;;10.40;99.90;;;;;;5113101;27;20039;-73
2021/12/13 00:12:33;;;;;;;128.85;24.35;;;10.40;99.90;;;;;;5105241;28;20047;-74
2021/12/13 00:15:00;;;;;;;129.82;25.92;;;10.30;99.90;;;;;;5107393;27;20050;-74
2021/12/13 00:17:35;;;;;;;157.82;26.77;;;10.40;99.90;;;;;;5098257;27;20039;-73
2021/12/13 00:20:26;;;;;;;134.05;26.67;;;10.40;99.90;;;;;;5112733;27;20146;-73
2021/12/13 00:22:54;;;;;;;110.63;25.00;;;10.40;99.90;;;;;;5133274;27;20047;-75
2021/12/13 00:25:23;;;;;;;131.52;24.70;;;10.40;99.90;;;;;;5131706;27;20113;-73
2021/12/13 00:27:54;;;;;;;133.27;26.73;;;10.40;99.90;;;;;;5132536;27;20195;-73
2021/12/13 00:30:26;;;;;;;136.57;26.48;;;10.40;99.90;;;;;;5110610;27;20055;-72
2021/12/13 00:33:13;;;;;;;116.88;25.15;;;10.40;99.90;;;;;;5092429;28;20063;-77
2021/12/13 00:36:28;;;;;;;130.00;26.60;;;10.40;99.90;;;;;;5090383;28;20039;-73
2021/12/13 00:39:03;;;;;;;106.22;24.42;;;10.40;99.90;;;;;;5108979;27;20059;-76
2021/12/13 00:41:31;;;;;;;119.82;25.77;;;10.40;99.90;;;;;;5152247;27;20160;-74
2021/12/13 00:44:05;;;;;;;127.68;24.52;;;10.40;99.90;;;;;;5132779;27;20075;-73
2021/12/13 00:46:33;;;;;;;132.93;25.60;;;10.40;99.90;;;;;;5151331;27;20452;-73
2021/12/13 00:49:05;;;;;;;114.95;24.33;;;10.40;99.90;;;;;;5152453;27;20042;-73
2021/12/13 00:51:35;;;;;;;94.15;23.70;;;10.40;99.90;;;;;;5115504;27;20167;-73
2021/12/13 00:54:09;;;;;;;119.00;23.40;;;10.40;99.90;;;;;;5152580;27;20035;-73
2021/12/13 00:56:42;;;;;;;117.07;24.17;;;10.40;99.90;;;;;;5151557;27;20195;-73
2021/12/13 00:59:10;;;;;;;105.38;22.55;;;10.40;99.90;;;;;;5152562;27;20046;-74
2021/12/13 01:01:37;;;;;;;110.32;24.02;;;10.40;99.90;;;;;;5129844;27;20115;-73
2021/12/13 01:04:07;;;;;;;99.93;23.17;;;10.40;99.90;;;;;;5128137;27;20533;-73
2021/12/13 01:07:12;;;;;;;106.88;23.05;;;10.40;99.90;;;;;;5144789;27;20131;-73
2021/12/13 01:10:15;;;;;;;98.15;23.13;;;10.40;99.90;;;;;;5133155;27;20050;-72
2021/12/13 01:12:42;;;;;;;117.25;23.10;;;10.40;99.90;;;;;;5112112;28;20138;-73
2021/12/13 01:15:29;;;;;;;101.97;22.67;;;10.40;99.90;;;;;;5129453;27;20038;-75
2021/12/13 01:18:17;;;;;;;119.28;23.63;;;10.40;99.90;;;;;;5134812;27;20738;-72
2021/12/13 01:21:16;;;;;;;96.30;20.10;;;10.40;99.90;;;;;;5151102;27;20406;-73
2021/12/13 01:23:51;;;;;;;109.57;20.85;;;10.40;99.90;;;;;;5153120;27;20043;-73
2021/12/13 01:26:38;;;;;;;104.55;20.38;;;10.40;99.90;;;;;;5115475;27;20043;-73
2021/12/13 01:29:17;;;;;;;87.15;18.83;;;10.40;99.90;;;;;;5152123;27;20039;-73
2021/12/13 01:31:58;;;;;;;95.85;20.85;;;10.40;99.90;;;;;;5151151;27;20048;-74
2021/12/13 01:34:26;;;;;;;108.10;21.08;;;10.40;99.90;;;;;;5151283;27;20500;-74
2021/12/13 01:37:17;;;;;;;95.78;20.48;;;10.40;99.90;;;;;;5114964;27;20095;-73
2021/12/13 01:39:52;;;;;;;92.25;19.27;;;10.40;99.90;;;;;;5075128;28;20373;-72
2021/12/13 01:42:29;;;;;;;84.30;21.10;;;10.40;99.90;;;;;;5118956;27;20429;-72
2021/12/13 01:44:59;;;;;;;85.13;18.55;;;10.40;99.90;;;;;;5131582;28;20379;-73
2021/12/13 01:47:34;;;;;;;76.22;16.75;;;10.40;99.90;;;;;;5131832;28;20043;-73
2021/12/13 01:50:31;;;;;;;66.30;17.52;;;10.40;99.90;;;;;;5151116;27;20038;-73
2021/12/13 01:53:00;;;;;;;63.50;16.95;;;10.40;99.90;;;;;;5135714;27;20047;-73
2021/12/13 01:55:34;;;;;;;61.80;16.85;;;10.40;99.90;;;;;;5111869;28;20070;-73
2021/12/13 02:01:10;;;;;;;60.75;17.00;;;10.40;99.90;;;;;;5135717;27;20062;-72
2021/12/13 02:03:54;;;;;;;73.57;18.92;;;10.40;99.90;;;;;;5147371;27;20042;-73
2021/12/13 02:06:38;;;;;;;74.88;18.70;;;10.40;99.90;;;;;;5137497;27;20081;-73
2021/12/13 02:09:26;;;;;;;79.22;20.25;;;10.40;99.90;;;;;;5154307;27;20130;-75
2021/12/13 02:11:56;;;;;;;82.93;19.65;;;10.40;99.90;;;;;;5147377;27;20051;-73
2021/12/13 02:14:28;;;;;;;78.85;19.10;;;10.30;99.90;;;;;;5132962;27;20047;-72
2021/12/13 02:19:38;;;;;;;85.60;21.63;;;10.40;99.90;;;;;;5134984;27;20492;-73
2021/12/13 02:22:24;;;;;;;;;;;10.30;99.90;;;;;;5102505;27;20058;-72
2021/12/13 02:24:52;;;;;;;79.47;19.92;;;10.30;99.90;;;;;;5134167;27;19958;-73
2021/12/13 02:27:28;;;;;;;83.22;21.02;;;10.30;99.90;;;;;;5154157;27;20401;-73
2021/12/13 02:29:57;;;;;;;82.13;22.50;;;10.30;99.90;;;;;;5137414;27;20107;-72
2021/12/13 02:32:28;;;;;;;79.78;21.77;;;10.30;99.90;;;;;;5137388;27;20078;-73
2021/12/13 02:34:57;;;;;;;75.05;21.58;;;10.30;99.90;;;;;;5122709;27;20035;-74
2021/12/13 02:37:26;;;;;;;78.13;20.90;;;10.30;99.90;;;;;;5150799;27;20067;-74
2021/12/13 02:39:56;;;;;;;77.30;22.80;;;10.20;99.90;;;;;;5115739;27;20458;-74
2021/12/13 02:42:23;;;;;;;74.20;21.27;;;10.20;99.90;;;;;;5117260;27;20082;-72
2021/12/13 02:44:51;;;;;;;;;;;10.30;99.90;;;;;;5145264;27;20049;-76
2021/12/13 02:47:31;;;;;;;64.78;18.10;;;10.20;99.90;;;;;;5155365;27;19926;-73
2021/12/13 02:49:58;;;;;;;72.03;18.80;;;10.20;99.90;;;;;;5155660;27;20039;-72
2021/12/13 02:52:25;;;;;;;64.75;18.05;;;10.20;99.90;;;;;;5103363;27;20050;-74
2021/12/13 02:55:00;;;;;;;67.93;18.77;;;10.20;99.90;;;;;;5127713;27;20122;-72
2021/12/13 02:57:33;;;;;;;69.10;18.88;;;10.20;99.90;;;;;;5126222;27;20389;-72
2021/12/13 03:00:17;;;;;;;58.45;16.95;;;10.10;99.90;;;;;;5155527;27;20035;-73
2021/12/13 03:02:45;;;;;;;58.05;15.57;;;10.10;99.90;;;;;;5116450;27;20070;-72
2021/12/13 03:05:18;;;;;;;45.05;14.30;;;10.10;99.90;;;;;;5129001;27;20092;-76
2021/12/13 03:07:48;;;;;;;37.30;12.98;;;10.10;99.90;;;;;;5100317;27;20051;-73
2021/12/13 03:10:28;;;;;;;41.75;13.60;;;10.10;99.90;;;;;;5113917;27;20054;-73
2021/12/13 03:12:54;;;;;;;40.50;13.75;;;10.00;99.90;;;;;;5135120;27;20083;-72
2021/12/13 03:15:25;;;;;;;35.17;12.10;;;10.00;99.90;;;;;;5139521;27;20043;-72
2021/12/13 03:17:59;;;;;;;37.60;11.60;;;10.00;99.90;;;;;;5155664;27;20096;-74
2021/12/13 03:20:51;;;;;;;38.25;11.15;;;9.90;99.90;;;;;;5152806;27;20136;-74
2021/12/13 03:23:40;;;;;;;37.90;10.95;;;9.90;99.90;;;;;;5136162;27;20081;-73
2021/12/13 03:26:57;;;;;;;41.20;10.68;;;9.80;99.90;;;;;;5115862;27;20134;-75
2021/12/13 03:29:25;;;;;;;31.13;9.20;;;9.80;99.90;;;;;;5063025;27;20065;-72
2021/12/13 03:31:54;;;;;;;43.47;9.30;;;9.80;99.90;;;;;;5155271;27;20082;-74
2021/12/13 03:34:24;;;;;;;47.80;10.15;;;9.70;99.90;;;;;;5146109;27;20126;-73
2021/12/13 03:37:12;;;;;;;35.00;9.48;;;9.70;99.90;;;;;;5102450;27;20043;-73
2021/12/13 03:39:41;;;;;;;25.88;7.53;;;9.60;99.90;;;;;;5127974;27;20046;-72
2021/12/13 03:42:27;;;;;;;35.50;8.52;;;9.60;99.90;;;;;;5155210;27;20082;-74
2021/12/13 03:45:08;;;;;;;31.40;8.30;;;9.60;99.90;;;;;;5136032;27;20142;-73
2021/12/13 03:47:39;;;;;;;28.08;9.13;;;9.60;99.90;;;;;;5136449;27;20047;-72
2021/12/13 03:50:12;;;;;;;32.50;8.98;;;9.60;99.90;;;;;;5098357;27;20051;-74
2021/12/13 03:52:44;;;;;;;38.40;9.35;;;9.60;99.90;;;;;;5098734;27;20081;-73
2021/12/13 03:55:14;;;;;;;33.03;9.50;;;9.60;99.90;;;;;;5114491;27;20138;-74
2021/12/13 03:57:46;;;;;;;34.33;9.02;;;9.50;99.90;;;;;;5144089;27;20043;-73
2021/12/13 04:00:16;;;;;;;30.52;8.85;;;9.50;99.90;;;;;;5116246;27;20063;-74
2021/12/13 04:02:43;;;;;;;29.15;8.68;;;9.50;99.90;;;;;;5099017;27;20395;-74
2021/12/13 04:05:12;;;;;;;28.27;8.70;;;9.50;99.90;;;;;;5115144;27;20050;-73
2021/12/13 04:07:42;;;;;;;36.85;9.95;;;9.50;99.90;;;;;;5115819;27;20530;-75
2021/12/13 04:10:16;;;;;;;34.10;9.32;;;9.50;99.90;;;;;;5113959;27;20057;-72
2021/12/13 04:12:49;;;;;;;33.42;9.30;;;9.40;99.90;;;;;;5104856;27;20079;-72
2021/12/13 04:15:38;;;;;;;30.80;10.15;;;9.40;99.90;;;;;;5114033;27;20128;-77
2021/12/13 04:18:15;;;;;;;30.60;9.35;;;9.40;99.90;;;;;;5141846;27;20087;-73
2021/12/13 04:20:42;;;;;;;32.20;9.68;;;9.50;99.90;;;;;;5153259;27;20051;-73
2021/12/13 04:23:13;;;;;;;26.38;9.73;;;9.40;99.90;;;;;;5099778;27;20089;-73
2021/12/13 04:25:42;;;;;;;35.15;10.25;;;9.40;99.90;;;;;;5116297;27;20110;-75
2021/12/13 04:28:13;;;;;;;31.83;10.00;;;9.40;99.90;;;;;;5133680;27;20049;-74
2021/12/13 04:30:43;;;;;;;29.80;9.85;;;9.40;99.90;;;;;;5153269;27;20039;-72
2021/12/13 04:33:33;;;;;;;28.25;9.10;;;9.40;99.90;;;;;;5135821;27;20093;-73
2021/12/13 04:36:04;;;;;;;30.42;9.10;;;9.40;99.90;;;;;;5132322;27;20441;-75
2021/12/13 04:38:52;;;;;;;31.98;9.38;;;9.40;99.90;;;;;;5115845;27;20375;-72
2021/12/13 04:41:32;;;;;;;27.38;8.52;;;9.30;99.90;;;;;;5133597;27;20121;-77
2021/12/13 04:44:03;;;;;;;31.73;10.60;;;9.40;99.90;;;;;;5116442;27;20042;-73
2021/12/13 04:46:31;;;;;;;31.23;9.00;;;9.30;99.90;;;;;;5134639;27;20046;-73
2021/12/13 04:49:05;;;;;;;22.10;8.10;;;9.40;99.90;;;;;;5132973;27;20051;-74
2021/12/13 04:51:52;;;;;;;27.25;9.20;;;9.30;99.90;;;;;;5134494;27;20054;-72
2021/12/13 04:54:18;;;;;;;29.40;9.32;;;9.40;99.90;;;;;;5133807;27;20046;-75
2021/12/13 04:56:46;;;;;;;30.77;9.10;;;9.30;99.90;;;;;;5153329;27;20047;-73
2021/12/13 04:59:13;;;;;;;34.15;10.30;;;9.30;99.90;;;;;;5133385;27;20299;-72
2021/12/13 05:01:42;;;;;;;37.72;10.35;;;9.30;99.90;;;;;;5114561;27;20627;-72
2021/12/13 05:04:09;;;;;;;34.63;10.27;;;9.30;99.90;;;;;;5153652;27;20046;-72
2021/12/13 05:06:41;;;;;;;37.88;11.23;;;9.30;99.90;;;;;;5134136;27;20043;-72
2021/12/13 05:09:10;;;;;;;34.90;10.77;;;9.30;99.90;;;;;;5153059;27;20046;-72
2021/12/13 05:11:41;;;;;;;37.22;11.95;;;9.30;99.90;;;;;;5129276;27;20095;-73
2021/12/13 05:14:08;;;;;;;42.63;10.90;;;9.30;99.90;;;;;;5115972;27;20046;-72
2021/12/13 05:16:58;;;;;;;45.78;11.68;;;9.30;99.90;;;;;;5152457;27;20050;-71
2021/12/13 05:19:34;;;;;;;39.30;12.68;;;9.30;99.90;;;;;;5133926;27;20069;-72
2021/12/13 05:22:04;;;;;;;45.70;12.75;;;9.30;99.90;;;;;;5093739;28;20484;-71
2021/12/13 05:24:34;;;;;;;40.30;12.75;;;9.30;99.90;;;;;;5109617;28;20035;-72
2021/12/13 05:27:11;;;;;;;47.53;14.82;;;9.30;99.90;;;;;;5127913;27;20475;-72
2021/12/13 05:29:40;;;;;;;45.45;12.88;;;9.30;99.90;;;;;;5125808;27;20099;-74
2021/12/13 05:32:26;;;;;;;45.67;13.88;;;9.30;99.90;;;;;;5098256;27;20079;-73
2021/12/13 05:34:57;;;;;;;48.30;14.75;;;9.30;99.90;;;;;;5114678;27;20570;-71
2021/12/13 05:37:23;;;;;;;46.10;14.52;;;9.30;99.90;;;;;;5124085;27;20541;-76
2021/12/13 05:40:11;;;;;;;47.85;14.80;;;9.30;99.90;;;;;;5091658;28;20511;-73
2021/12/13 05:42:56;;;;;;;47.08;13.70;;;9.20;99.90;;;;;;5127390;28;20400;-71
2021/12/13 05:45:41;;;;;;;48.33;15.63;;;9.20;99.90;;;;;;5076459;28;20047;-74
2021/12/13 05:48:20;;;;;;;49.47;16.35;;;9.30;99.90;;;;;;5121864;27;20049;-72
2021/12/13 05:50:53;;;;;;;54.75;16.92;;;9.30;99.90;;;;;;5131275;28;20357;-72
2021/12/13 05:53:44;;;;;;;49.55;16.38;;;9.30;99.90;;;;;;5132468;28;20125;-71
2021/12/13 05:56:15;;;;;;;53.58;17.35;;;9.30;99.90;;;;;;5146776;27;20055;-72
2021/12/13 05:58:50;;;;;;;56.20;18.15;;;9.20;99.90;;;;;;5131423;28;20513;-72
2021/12/13 06:01:24;;;;;;;62.35;18.02;;;9.30;99.90;;;;;;5134182;27;20139;-73
2021/12/13 06:04:16;;;;;;;67.32;19.70;;;9.20;99.90;;;;;;5133720;27;20134;-72
2021/12/13 06:06:54;;;;;;;59.65;19.13;;;9.30;99.90;;;;;;5133489;27;20058;-72
2021/12/13 06:09:41;;;;;;;62.47;19.40;;;9.20;99.90;;;;;;5075066;28;20583;-71
2021/12/13 06:12:12;;;;;;;66.10;18.92;;;9.20;99.90;;;;;;5118204;27;20075;-72
2021/12/13 06:14:39;;;;;;;66.13;20.60;;;9.30;99.90;;;;;;5092621;28;20376;-72
2021/12/13 06:17:10;;;;;;;66.65;22.55;;;9.20;99.90;;;;;;5076573;28;20052;-72
2021/12/13 06:19:41;;;;;;;62.72;20.83;;;9.30;99.90;;;;;;5092340;28;20472;-72
2021/12/13 06:22:21;;;;;;;70.78;21.85;;;9.20;99.90;;;;;;5124115;27;20042;-72
2021/12/13 06:24:57;;;;;;;74.68;22.35;;;9.30;99.90;;;;;;5150499;27;20521;-73
2021/12/13 06:27:27;;;;;;;70.93;20.98;;;9.20;99.90;;;;;;5108793;28;20044;-73
2021/12/13 06:30:05;;;;;;;80.57;24.73;;;9.20;99.90;;;;;;5126071;28;20221;-73
2021/12/13 06:33:15;;;;;;;79.05;23.73;;;9.20;99.90;;;;;;5089792;27;20074;-73
2021/12/13 06:35:57;;;;;;;81.43;23.83;;;9.20;99.90;;;;;;5076837;27;20051;-72
2021/12/13 06:38:26;;;;;;;78.10;24.33;;;9.30;99.90;;;;;;5116091;28;20413;-71
2021/12/13 06:40:52;;;;;;;82.72;25.52;;;9.30;99.90;;;;;;5129363;28;20107;-74
2021/12/13 06:43:47;;;;;;;80.53;25.38;;;9.20;99.90;;;;;;5114922;28;20100;-72
2021/12/13 06:46:32;;;;;;;83.90;26.92;;;9.30;99.90;;;;;;5132620;27;20051;-72
2021/12/13 06:49:33;;;;;;;86.35;25.90;;;9.30;99.90;;;;;;5117312;27;20055;-72
2021/12/13 06:52:08;;;;;;;82.70;26.00;;;9.20;99.90;;;;;;5152125;27;20372;-73
2021/12/13 06:54:48;;;;;;;90.30;27.88;;;9.20;99.90;;;;;;5133740;27;20063;-74
2021/12/13 06:57:20;;;;;;;81.88;26.08;;;9.20;99.90;;;;;;5135403;27;20050;-72
2021/12/13 06:59:59;;;;;;;87.75;26.42;;;9.30;99.90;;;;;;5113277;27;20039;-72
2021/12/13 07:02:35;;;;;;;87.95;26.38;;;9.20;99.90;;;;;;5118335;27;20131;-72
2021/12/13 07:05:08;;;;;;;91.20;27.38;;;9.20;99.90;;;;;;5114104;27;20059;-71
2021/12/13 07:07:57;;;;;;;82.20;26.25;;;9.20;99.90;;;;;;5134896;27;20043;-76
2021/12/13 07:10:27;;;;;;;88.28;27.00;;;9.20;99.90;;;;;;5133547;27;20057;-73
2021/12/13 07:12:56;;;;;;;84.25;28.30;;;9.30;99.90;;;;;;5116958;27;20277;-72
2021/12/13 07:15:30;;;;;;;96.45;28.92;;;9.20;99.90;;;;;;5120161;27;20051;-72
2021/12/13 07:18:34;;;;;;;85.80;27.95;;;9.20;99.90;;;;;;5134523;27;20101;-73
2021/12/13 07:21:13;;;;;;;86.50;26.73;;;9.20;99.90;;;;;;5145992;27;20120;-72
2021/12/13 07:23:57;;;;;;;81.97;26.08;;;9.20;99.90;;;;;;5134146;27;20156;-72
2021/12/13 07:26:49;;;;;;;91.68;27.88;;;9.20;99.90;;;;;;5134781;27;20043;-74
2021/12/13 07:29:27;;;;;;;85.60;27.08;;;9.20;99.90;;;;;;5137269;27;20047;-75
2021/12/13 07:32:08;;;;;;;82.88;27.13;;;9.20;99.90;;;;;;5119619;27;20057;-73
2021/12/13 07:35:06;;;;;;;77.45;26.73;;;9.20;99.90;;;;;;5121521;27;20037;-72
2021/12/13 07:37:43;;;;;;;92.10;27.63;;;9.20;99.90;;;;;;5118721;27;20051;-73
2021/12/13 07:40:19;;;;;;;88.75;28.13;;;9.20;99.90;;;;;;5112463;28;20067;-73
2021/12/13 07:42:57;;;;;;;83.72;26.63;;;9.20;99.90;;;;;;5113677;28;20039;-72
2021/12/13 07:45:54;;;;;;;86.78;26.25;;;9.20;99.90;;;;;;5114482;27;20118;-73
2021/12/13 07:48:26;;;;;;;80.75;26.50;;;9.20;99.90;;;;;;5123134;27;20534;-72
2021/12/13 07:51:08;;;;;;;81.07;25.33;;;9.30;99.90;;;;;;5128374;27;20051;-73
2021/12/13 07:53:57;;;;;;;78.15;26.83;;;9.20;99.90;;;;;;5108424;28;20491;-73
2021/12/13 07:56:29;;;;;;;81.13;26.00;;;9.20;99.90;;;;;;5104929;27;20054;-73
2021/12/13 07:59:03;;;;;;;85.07;26.77;;;9.20;99.90;;;;;;5112646;28;20043;-73
2021/12/13 08:01:31;;;;;;;75.68;25.25;;;9.20;99.90;;;;;;5112019;28;20066;-73
2021/12/13 08:04:14;;;;;;;79.68;25.92;;;9.20;99.90;;;;;;5094755;28;20059;-73
2021/12/13 08:06:45;;;;;;;82.80;25.90;;;9.20;99.90;;;;;;5119085;27;20082;-77
2021/12/13 08:09:16;;;;;;;70.53;25.40;;;9.20;99.90;;;;;;5130869;27;20051;-73
2021/12/13 08:11:47;;;;;;;76.07;26.27;;;9.20;99.90;;;;;;5125654;27;20048;-74
2021/12/13 08:14:14;;;;;;;75.40;25.60;;;9.20;99.90;;;;;;5091414;28;20130;-77
2021/12/13 08:16:46;;;;;;;74.72;26.13;;;9.20;99.90;;;;;;5097284;27;20039;-77
2021/12/13 08:19:22;;;;;;;77.97;26.15;;;9.20;99.90;;;;;;5111804;28;20070;-76
2021/12/13 08:21:57;;;;;;;68.55;24.90;;;9.20;99.90;;;;;;5113539;27;20035;-73
2021/12/13 08:24:28;;;;;;;71.50;25.60;;;9.20;99.90;;;;;;5110078;28;20496;-72
2021/12/13 08:27:08;;;;;;;80.28;25.98;;;9.20;99.90;;;;;;5114767;27;20078;-73
2021/12/13 08:29:37;;;;;;;75.55;25.13;;;9.20;99.90;;;;;;5111326;28;20049;-72
2021/12/13 08:32:13;;;;;;;71.47;24.48;;;9.20;99.90;;;;;;5094452;28;20072;-73
2021/12/13 08:34:44;;;;;;;74.95;23.95;;;9.20;99.90;;;;;;5111296;28;20040;-72
2021/12/13 08:37:19;;;;;;;73.63;22.52;;;9.20;99.90;;;;;;5115500;27;20039;-73
2021/12/13 08:39:49;;;;;;;67.60;23.42;;;9.20;99.90;;;;;;5113673;27;20046;-73
2021/12/13 08:42:19;;;;;;;68.43;23.88;;;9.20;99.90;;;;;;5135466;27;20436;-73
2021/12/13 08:44:59;;;;;;;78.30;23.95;;;9.20;99.90;;;;;;5134627;27;20047;-72
2021/12/13 08:47:49;;;;;;;74.60;24.30;;;9.20;99.90;;;;;;5118139;27;20485;-72
2021/12/13 08:50:30;;;;;;;68.18;22.40;;;9.20;99.90;;;;;;5132327;27;20049;-73
2021/12/13 08:53:12;;;;;;;60.90;22.75;;;9.20;99.90;;;;;;5153450;27;20038;-73
2021/12/13 08:55:43;;;;;;;71.38;25.13;;;9.20;99.90;;;;;;5133616;27;20043;-72
2021/12/13 08:58:15;;;;;;;66.97;22.77;;;9.20;99.90;;;;;;5118167;27;20078;-73
2021/12/13 09:00:44;;;;;;;65.57;20.95;;;9.30;99.90;;;;;;5129947;27;20043;-74
2021/12/13 09:03:35;;;;;;;64.43;22.77;;;9.20;99.90;;;;;;5134834;27;20321;-74
2021/12/13 09:06:20;;;;;;;62.97;22.42;;;9.30;99.90;;;;;;5134467;27;20075;-74
2021/12/13 09:08:52;;;;;;;63.35;22.23;;;9.30;99.90;;;;;;5133991;27;20054;-77
2021/12/13 09:11:20;;;;;;;63.95;22.35;;;9.30;99.90;;;;;;5148553;27;20039;-74
2021/12/13 09:13:52;;;;;;;63.28;22.30;;;9.30;99.90;;;;;;5114487;27;20146;-78
2021/12/13 09:16:21;;;;;;;59.45;22.00;;;9.30;99.90;;;;;;5134366;27;20035;-74
2021/12/13 09:19:05;;;;;;;62.13;21.77;;;9.30;99.90;;;;;;5134284;27;20045;-77
2021/12/13 09:21:31;;;;;;;58.33;21.95;;;9.30;99.90;;;;;;5132192;27;20050;-73
2021/12/13 09:23:57;;;;;;;59.17;21.60;;;9.30;99.90;;;;;;5132119;27;20357;-73
2021/12/13 09:26:25;;;;;;;67.35;24.92;;;9.30;99.90;;;;;;5130171;27;20818;-74
2021/12/13 09:29:06;;;;;;;60.05;21.48;;;9.30;99.90;;;;;;5096290;28;20058;-74
2021/12/13 09:31:37;;;;;;;62.80;21.40;;;9.30;99.90;;;;;;5114170;28;20089;-74
2021/12/13 09:34:10;;;;;;;57.30;20.77;;;9.40;99.90;;;;;;5150973;27;20057;-74
2021/12/13 09:36:39;;;;;;;58.63;20.13;;;9.40;99.90;;;;;;5123456;27;20046;-73
2021/12/13 09:39:20;;;;;;;57.88;20.05;;;9.40;99.90;;;;;;5095844;27;20487;-73
2021/12/13 09:41:59;;;;;;;57.65;19.90;;;9.40;99.90;;;;;;5114044;28;20472;-72
2021/12/13 09:44:34;;;;;;;57.40;21.15;;;9.40;99.90;;;;;;5110065;28;20097;-73
2021/12/13 09:47:10;;;;;;;54.70;19.10;;;9.40;99.90;;;;;;5111433;28;20131;-74
2021/12/13 09:49:39;;;;;;;55.33;19.83;;;9.40;99.90;;;;;;5093285;28;20058;-74
2021/12/13 09:52:09;;;;;;;54.20;20.20;;;9.40;99.90;;;;;;5111324;28;20051;-74
2021/12/13 09:54:50;;;;;;;51.22;18.58;;;9.50;99.90;;;;;;5113757;28;20545;-73
2021/12/13 09:57:20;;;;;;;54.00;18.88;;;9.50;99.90;;;;;;5114040;28;20047;-73
2021/12/13 09:59:52;;;;;;;59.13;20.63;;;9.40;99.90;;;;;;5131420;28;20483;-72
2021/12/13 10:02:23;;;;;;;55.53;19.45;;;9.40;99.90;;;;;;5132374;28;20103;-74
2021/12/13 10:04:50;;;;;;;51.35;18.48;;;9.50;99.90;;;;;;5147977;27;20043;-74
2021/12/13 10:07:25;;;;;;;58.25;18.73;;;9.60;99.90;;;;;;5117393;27;20100;-73
2021/12/13 10:10:19;;;;;;;50.20;18.42;;;9.50;99.90;;;;;;5149167;27;20088;-78
2021/12/13 10:12:55;;;;;;;51.15;18.23;;;9.60;99.90;;;;;;5104840;28;20495;-75
2021/12/13 10:15:35;;;;;;;50.67;17.73;;;9.50;99.90;;;;;;5131049;27;20450;-74
2021/12/13 10:18:07;;;;;;;46.42;17.60;;;9.60;99.90;;;;;;5081136;28;20047;-74
2021/12/13 10:20:37;;;;;;;52.90;19.73;;;9.60;99.90;;;;;;5098940;27;20039;-73
2021/12/13 10:23:07;;;;;;;51.97;18.73;;;9.50;99.90;;;;;;5135481;27;20126;-74
2021/12/13 10:25:37;;;;;;;48.17;18.40;;;9.50;99.90;;;;;;5151156;27;20050;-73
2021/12/13 10:28:21;;;;;;;45.70;17.58;;;9.60;99.90;;;;;;5155662;27;20092;-74
2021/12/13 10:30:52;;;;;;;53.55;18.83;;;9.60;99.90;;;;;;5137869;27;20038;-73
2021/12/13 10:33:21;;;;;;;50.45;18.00;;;9.60;99.90;;;;;;5138213;27;20062;-74
2021/12/13 10:35:49;;;;;;;47.38;17.85;;;9.60;99.90;;;;;;5136302;27;20045;-74
2021/12/13 10:38:31;;;;;;;53.83;18.45;;;9.60;99.90;;;;;;5117543;27;20205;-74
2021/12/13 10:41:05;;;;;;;45.55;17.92;;;9.60;99.90;;;;;;5139340;27;20047;-74
2021/12/13 10:43:41;;;;;;;49.33;18.38;;;9.60;99.90;;;;;;5117253;27;20405;-73
2021/12/13 10:46:21;;;;;;;50.75;18.02;;;9.60;99.90;;;;;;5135815;27;20051;-72
2021/12/13 10:48:54;;;;;;;54.03;19.02;;;9.60;99.90;;;;;;5118300;27;20043;-74
2021/12/13 10:51:30;;;;;;;52.72;18.17;;;9.60;99.90;;;;;;5110858;27;20051;-73
2021/12/13 10:54:00;;;;;;;51.80;16.95;;;9.60;99.90;;;;;;5134779;27;20399;-77
2021/12/13 10:56:33;;;;;;;49.10;17.63;;;9.60;99.90;;;;;;5110374;27;20043;-73
2021/12/13 10:59:12;;;;;;;50.00;17.63;;;9.70;99.90;;;;;;5119607;27;20133;-72
2021/12/13 11:01:42;;;;;;;46.33;18.08;;;9.70;99.90;;;;;;5134906;27;20043;-73
2021/12/13 11:04:12;;;;;;;49.97;17.27;;;9.70;99.90;;;;;;5129413;27;20484;-72
2021/12/13 11:06:40;;;;;;;46.15;16.83;;;9.70;99.90;;;;;;5133450;27;20045;-73
2021/12/13 11:09:20;;;;;;;41.55;14.73;;;9.70;99.90;;;;;;5098107;27;20052;-73
2021/12/13 11:11:51;;;;;;;48.97;16.95;;;9.70;99.90;;;;;;5083364;27;20399;-74
2021/12/13 11:14:20;;;;;;;45.90;16.95;;;9.70;99.90;;;;;;5133817;27;20573;-71
2021/12/13 11:16:59;;;;;;;48.45;18.45;;;9.70;99.90;;;;;;5122520;27;20114;-76
2021/12/13 11:19:29;;;;;;;46.65;17.58;;;9.70;99.90;;;;;;5136828;27;20099;-73
2021/12/13 11:22:01;;;;;;;46.47;17.38;;;9.80;99.90;;;;;;5118377;27;20039;-72
2021/12/13 11:24:30;;;;;;;49.38;18.33;;;9.70;99.90;;;;;;5115685;27;20039;-73
2021/12/13 11:27:00;;;;;;;42.85;16.52;;;9.70;99.90;;;;;;5117719;27;20054;-73
2021/12/13 11:29:28;;;;;;;47.58;17.40;;;9.80;99.90;;;;;;5135055;27;20043;-73
2021/12/13 11:31:58;;;;;;;47.00;16.55;;;9.80;99.90;;;;;;5116967;27;20115;-72
2021/12/13 11:34:52;;;;;;;45.58;17.00;;;9.70;99.90;;;;;;5136026;27;20094;-73
2021/12/13 11:38:10;;;;;;;46.40;16.30;;;9.80;99.90;;;;;;5153523;27;20474;-73
2021/12/13 11:41:07;;;;;;;48.78;17.90;;;9.80;99.90;;;;;;5091520;27;20047;-73
2021/12/13 11:44:20;;;;;;;47.38;16.83;;;9.80;99.90;;;;;;5116764;27;20055;-72
2021/12/13 11:47:18;;;;;;;44.30;16.48;;;9.80;99.90;;;;;;5051827;28;20051;-74
2021/12/13 11:50:03;;;;;;;50.70;16.98;;;9.70;99.90;;;;;;5127191;27;20072;-74
2021/12/13 11:53:07;;;;;;;44.13;17.20;;;9.80;99.90;;;;;;5126523;27;20042;-74
2021/12/13 11:56:03;;;;;;;45.45;16.83;;;9.80;99.90;;;;;;5088987;27;20502;-73
2021/12/13 11:59:00;;;;;;;44.88;16.27;;;9.80;99.90;;;;;;5125875;27;20046;-72
2021/12/13 12:01:50;;;;;;;46.67;16.33;;;9.80;99.90;;;;;;5114914;27;20047;-75
2021/12/13 12:04:54;;;;;;;43.90;16.10;;;9.80;99.90;;;;;;5112270;27;20054;-72
2021/12/13 12:07:43;;;;;;;47.78;16.15;;;9.90;99.90;;;;;;5116018;27;20051;-73
2021/12/13 12:10:09;;;;;;;46.88;16.08;;;9.90;99.90;;;;;;5116322;27;20133;-73
2021/12/13 12:12:44;;;;;;;40.78;14.93;;;9.90;99.90;;;;;;5133071;27;20040;-73
2021/12/13 12:15:10;;;;;;;46.80;16.45;;;10.00;99.90;;;;;;5095888;27;20040;-72
2021/12/13 12:17:38;;;;;;;42.45;15.05;;;10.00;99.90;;;;;;5115395;27;20062;-73
2021/12/13 12:20:31;;;;;;;46.45;16.15;;;10.00;99.90;;;;;;5097100;27;20537;-74
2021/12/13 12:23:02;;;;;;;36.72;14.73;;;10.10;99.90;;;;;;5115612;27;20126;-74
2021/12/13 12:25:32;;;;;;;44.17;16.15;;;10.10;99.90;;;;;;5096121;27;20043;-74
2021/12/13 12:28:02;;;;;;;40.95;15.85;;;10.00;99.90;;;;;;5116625;27;20039;-74
2021/12/13 12:30:37;;;;;;;41.92;15.10;;;10.10;99.90;;;;;;5115617;27;20638;-73
2021/12/13 12:33:11;;;;;;;42.28;15.73;;;10.00;99.90;;;;;;5114749;27;20039;-75
2021/12/13 12:35:43;;;;;;;39.13;14.95;;;10.00;99.90;;;;;;5127039;27;20099;-74
2021/12/13 12:38:34;;;;;;;43.22;15.43;;;10.00;99.90;;;;;;5115015;27;20047;-78
2021/12/13 12:41:06;;;;;;;38.03;14.82;;;10.10;99.90;;;;;;5113882;27;20051;-74
2021/12/13 12:43:37;;;;;;;47.35;16.85;;;10.10;99.90;;;;;;5113887;27;20051;-74
2021/12/13 12:46:08;;;;;;;41.30;15.00;;;10.20;99.90;;;;;;5132723;27;20047;-73
2021/12/13 12:48:43;;;;;;;43.55;15.43;;;10.20;99.90;;;;;;5134659;27;20050;-73
2021/12/13 12:51:19;;;;;;;42.42;15.05;;;10.20;99.90;;;;;;5150688;27;20118;-78
2021/12/13 12:53:47;;;;;;;38.40;14.30;;;10.20;99.90;;;;;;5094460;28;20487;-73
2021/12/13 12:56:29;;;;;;;41.90;14.93;;;10.20;99.90;;;;;;5092294;28;20140;-74
2021/12/13 12:59:21;;;;;;;33.83;14.20;;;10.10;99.90;;;;;;5116227;27;20043;-73
2021/12/13 13:01:58;;;;;;;39.42;13.77;;;10.10;99.90;;;;;;5120791;27;20067;-73
2021/12/13 13:04:27;;;;;;;;;;;10.20;99.90;;;;;;5114815;27;20521;-72
2021/12/13 13:07:19;;;;;;;37.60;14.07;;;10.20;99.90;;;;;;5114652;27;19919;-74
2021/12/13 13:09:56;;;;;;;39.78;14.00;;;10.20;99.90;;;;;;5143200;27;20103;-75
2021/12/13 13:12:28;;;;;;;;;;;10.20;99.90;;;;;;5145095;27;20102;-73
2021/12/13 13:15:32;;;;;;;35.22;12.75;;;10.30;99.90;;;;;;5133601;27;19927;-74
2021/12/13 13:18:11;;;;;;;33.45;13.05;;;10.30;99.90;;;;;;5041840;28;20044;-76
2021/12/13 13:20:51;;;;;;;39.65;14.35;;;10.30;99.90;;;;;;5085106;28;20053;-72
2021/12/13 13:23:20;;;;;;;36.97;12.95;;;10.30;99.90;;;;;;5111600;28;20108;-73
2021/12/13 13:25:55;;;;;;;35.20;13.18;;;10.30;99.90;;;;;;5085440;27;20100;-75
2021/12/13 13:28:27;;;;;;;35.55;13.23;;;10.30;99.90;;;;;;5111659;27;20086;-75
2021/12/13 13:30:57;;;;;;;32.20;12.98;;;10.30;99.90;;;;;;5093702;28;20039;-74